sensor_id;sensor_type;location;lat;lon;timestamp;pressure;altitude;pressure_sealevel;temperature;humidity
55486;BME280;71262;-25.924;28.194;2024-03-23T00:53:57;85365.38;;;21.30;49.64
55486;BME280;71262;-25.924;28.194;2024-03-23T00:56:23;85363.87;;;21.66;49.79
55486;BME280;71262;-25.924;28.194;2024-03-23T00:58:49;85362.43;;;21.65;47.51
55486;BME280;71262;-25.924;28.194;2024-03-23T01:01:15;85364.41;;;21.69;45.68
55486;BME280;71262;-25.924;28.194;2024-03-23T01:03:40;85361.09;;;21.41;47.31
55486;BME280;71262;-25.924;28.194;2024-03-23T01:06:05;85361.24;;;21.43;48.72
55486;BME280;71262;-25.924;28.194;2024-03-23T01:08:31;85360.70;;;21.18;49.51
55486;BME280;71262;-25.924;28.194;2024-03-23T01:10:58;85361.77;;;21.32;50.08
55486;BME280;71262;-25.924;28.194;2024-03-23T01:13:23;85363.82;;;21.47;50.27
55486;BME280;71262;-25.924;28.194;2024-03-23T01:15:49;85360.39;;;21.74;47.69
55486;BME280;71262;-25.924;28.194;2024-03-23T01:18:14;85362.39;;;21.54;45.67
55486;BME280;71262;-25.924;28.194;2024-03-23T01:20:39;85362.23;;;21.22;48.12
55486;BME280;71262;-25.924;28.194;2024-03-23T01:23:05;85364.18;;;21.51;48.63
55486;BME280;71262;-25.924;28.194;2024-03-23T01:25:29;85360.63;;;21.30;49.63
55486;BME280;71262;-25.924;28.194;2024-03-23T01:27:54;85361.12;;;21.31;49.80
55486;BME280;71262;-25.924;28.194;2024-03-23T01:30:19;85359.10;;;21.17;50.47
55486;BME280;71262;-25.924;28.194;2024-03-23T01:32:46;85356.60;;;21.61;46.46
55486;BME280;71262;-25.924;28.194;2024-03-23T01:35:10;85361.88;;;21.42;46.88
55486;BME280;71262;-25.924;28.194;2024-03-23T01:37:35;85374.95;;;20.91;48.66
55486;BME280;71262;-25.924;28.194;2024-03-23T01:40:01;85378.59;;;21.37;49.45
55486;BME280;71262;-25.924;28.194;2024-03-23T01:42:27;85380.80;;;20.96;49.94
55486;BME280;71262;-25.924;28.194;2024-03-23T01:44:53;85381.37;;;21.24;50.44
55486;BME280;71262;-25.924;28.194;2024-03-23T01:47:19;85379.55;;;21.51;50.04
55486;BME280;71262;-25.924;28.194;2024-03-23T01:49:44;85383.23;;;21.47;46.48
55486;BME280;71262;-25.924;28.194;2024-03-23T01:52:10;85393.91;;;21.39;47.20
55486;BME280;71262;-25.924;28.194;2024-03-23T01:54:35;85394.29;;;21.33;48.69
55486;BME280;71262;-25.924;28.194;2024-03-23T01:57:00;85395.52;;;21.31;49.59
55486;BME280;71262;-25.924;28.194;2024-03-23T01:59:26;85394.64;;;21.17;50.17
55486;BME280;71262;-25.924;28.194;2024-03-23T02:01:51;85399.27;;;21.28;50.28
55486;BME280;71262;-25.924;28.194;2024-03-23T02:04:17;85402.90;;;21.50;48.26
55486;BME280;71262;-25.924;28.194;2024-03-23T02:06:43;85399.96;;;21.38;45.93
55486;BME280;71262;-25.924;28.194;2024-03-23T02:09:08;85398.26;;;21.13;48.24
55486;BME280;71262;-25.924;28.194;2024-03-23T02:11:33;85396.49;;;21.20;49.40
55486;BME280;71262;-25.924;28.194;2024-03-23T02:13:58;85397.48;;;20.97;50.06
55486;BME280;71262;-25.924;28.194;2024-03-23T02:16:24;85397.58;;;21.21;50.12
55486;BME280;71262;-25.924;28.194;2024-03-23T02:18:50;85394.07;;;21.01;50.58
55486;BME280;71262;-25.924;28.194;2024-03-23T02:21:15;85398.09;;;21.43;48.32
55486;BME280;71262;-25.924;28.194;2024-03-23T02:23:40;85394.72;;;21.21;46.00
55486;BME280;71262;-25.924;28.194;2024-03-23T02:26:06;85392.83;;;21.03;48.31
55486;BME280;71262;-25.924;28.194;2024-03-23T02:28:31;85394.25;;;21.12;49.41
55486;BME280;71262;-25.924;28.194;2024-03-23T02:30:56;85397.77;;;21.30;49.72
55486;BME280;71262;-25.924;28.194;2024-03-23T02:33:21;85400.97;;;21.08;50.45
55486;BME280;71262;-25.924;28.194;2024-03-23T02:35:47;85398.90;;;21.51;50.72
55486;BME280;71262;-25.924;28.194;2024-03-23T02:38:13;85402.31;;;21.48;48.31
55486;BME280;71262;-25.924;28.194;2024-03-23T02:40:39;85406.90;;;21.27;46.14
55486;BME280;71262;-25.924;28.194;2024-03-23T02:43:04;85410.16;;;21.05;48.17
55486;BME280;71262;-25.924;28.194;2024-03-23T02:45:29;85413.02;;;21.19;49.06
55486;BME280;71262;-25.924;28.194;2024-03-23T02:47:54;85414.72;;;21.16;50.06
55486;BME280;71262;-25.924;28.194;2024-03-23T02:50:20;85417.07;;;21.34;50.47
55486;BME280;71262;-25.924;28.194;2024-03-23T02:52:44;85416.44;;;21.28;50.97
55486;BME280;71262;-25.924;28.194;2024-03-23T02:55:09;85415.30;;;21.36;51.58
55486;BME280;71262;-25.924;28.194;2024-03-23T02:57:34;85417.27;;;20.76;47.72
55486;BME280;71262;-25.924;28.194;2024-03-23T02:59:59;85411.71;;;21.02;49.03
55486;BME280;71262;-25.924;28.194;2024-03-23T03:02:24;85415.03;;;21.06;50.36
55486;BME280;71262;-25.924;28.194;2024-03-23T03:04:49;85419.44;;;21.02;50.73
55486;BME280;71262;-25.924;28.194;2024-03-23T03:07:15;85423.83;;;21.28;50.83
55486;BME280;71262;-25.924;28.194;2024-03-23T03:09:40;85422.01;;;21.53;51.49
55486;BME280;71262;-25.924;28.194;2024-03-23T03:12:06;85422.03;;;21.13;47.96
55486;BME280;71262;-25.924;28.194;2024-03-23T03:14:30;85424.42;;;21.19;47.46
55486;BME280;71262;-25.924;28.194;2024-03-23T03:16:56;85430.91;;;20.77;48.96
55486;BME280;71262;-25.924;28.194;2024-03-23T03:19:21;85435.42;;;20.93;49.93
55486;BME280;71262;-25.924;28.194;2024-03-23T03:21:47;85437.65;;;20.82;50.43
55486;BME280;71262;-25.924;28.194;2024-03-23T03:24:13;85441.37;;;21.11;50.87
55486;BME280;71262;-25.924;28.194;2024-03-23T03:26:40;85439.90;;;21.01;51.11
55486;BME280;71262;-25.924;28.194;2024-03-23T03:29:05;85441.61;;;20.66;51.94
55486;BME280;71262;-25.924;28.194;2024-03-23T03:31:30;85439.25;;;21.11;48.67
55486;BME280;71262;-25.924;28.194;2024-03-23T03:33:55;85440.90;;;20.97;46.50
55486;BME280;71262;-25.924;28.194;2024-03-23T03:36:20;85449.78;;;20.75;48.89
55486;BME280;71262;-25.924;28.194;2024-03-23T03:38:46;85451.81;;;21.04;49.95
55486;BME280;71262;-25.924;28.194;2024-03-23T03:41:12;85450.68;;;20.80;50.96
55486;BME280;71262;-25.924;28.194;2024-03-23T03:43:37;85450.67;;;20.96;51.49
55486;BME280;71262;-25.924;28.194;2024-03-23T03:46:02;85448.00;;;20.97;51.65
55486;BME280;71262;-25.924;28.194;2024-03-23T03:48:27;85450.91;;;21.16;49.93
55486;BME280;71262;-25.924;28.194;2024-03-23T03:50:52;85450.90;;;20.91;46.82
55486;BME280;71262;-25.924;28.194;2024-03-23T03:53:17;85455.88;;;20.99;49.29
55486;BME280;71262;-25.924;28.194;2024-03-23T03:55:42;85459.34;;;20.94;50.43
55486;BME280;71262;-25.924;28.194;2024-03-23T03:58:07;85460.86;;;20.68;51.11
55486;BME280;71262;-25.924;28.194;2024-03-23T04:00:32;85461.35;;;20.95;51.27
55486;BME280;71262;-25.924;28.194;2024-03-23T04:02:58;85464.45;;;21.04;51.26
55486;BME280;71262;-25.924;28.194;2024-03-23T04:05:24;85466.81;;;21.04;51.34
55486;BME280;71262;-25.924;28.194;2024-03-23T04:07:50;85470.29;;;20.88;49.87
55486;BME280;71262;-25.924;28.194;2024-03-23T04:10:16;85467.04;;;20.69;51.07
55486;BME280;71262;-25.924;28.194;2024-03-23T04:12:42;85466.65;;;20.81;51.97
55486;BME280;71262;-25.924;28.194;2024-03-23T04:15:07;85468.53;;;20.98;48.11
55486;BME280;71262;-25.924;28.194;2024-03-23T04:17:32;85471.95;;;20.54;47.99
55486;BME280;71262;-25.924;28.194;2024-03-23T04:19:57;85476.05;;;20.29;49.84
55486;BME280;71262;-25.924;28.194;2024-03-23T04:22:22;85476.07;;;20.57;51.41
55486;BME280;71262;-25.924;28.194;2024-03-23T04:24:47;85474.35;;;20.46;52.09
55486;BME280;71262;-25.924;28.194;2024-03-23T04:27:12;85472.81;;;20.31;52.54
55486;BME280;71262;-25.924;28.194;2024-03-23T04:29:37;85475.43;;;20.68;48.58
55486;BME280;71262;-25.924;28.194;2024-03-23T04:32:02;85478.59;;;20.41;47.64
55486;BME280;71262;-25.924;28.194;2024-03-23T04:34:27;85477.54;;;20.56;49.63
55486;BME280;71262;-25.924;28.194;2024-03-23T04:36:52;85476.66;;;20.55;51.06
55486;BME280;71262;-25.924;28.194;2024-03-23T04:39:17;85476.77;;;20.57;51.80
55486;BME280;71262;-25.924;28.194;2024-03-23T04:41:42;85478.35;;;20.47;52.13
55486;BME280;71262;-25.924;28.194;2024-03-23T04:44:08;85479.97;;;20.88;47.00
55486;BME280;71262;-25.924;28.194;2024-03-23T04:46:34;85491.37;;;20.72;47.72
55486;BME280;71262;-25.924;28.194;2024-03-23T04:48:59;85489.13;;;20.52;49.40
55486;BME280;71262;-25.924;28.194;2024-03-23T04:51:24;85490.73;;;20.77;50.67
55486;BME280;71262;-25.924;28.194;2024-03-23T04:53:50;85495.67;;;20.86;51.11
55486;BME280;71262;-25.924;28.194;2024-03-23T04:56:15;85498.30;;;20.94;51.01
55486;BME280;71262;-25.924;28.194;2024-03-23T04:58:40;85500.06;;;21.01;46.64
55486;BME280;71262;-25.924;28.194;2024-03-23T05:01:05;85503.27;;;20.48;47.95
55486;BME280;71262;-25.924;28.194;2024-03-23T05:03:30;85506.62;;;20.44;49.79
55486;BME280;71262;-25.924;28.194;2024-03-23T05:05:55;85504.23;;;20.77;50.76
55486;BME280;71262;-25.924;28.194;2024-03-23T05:08:20;85505.09;;;20.63;51.40
55486;BME280;71262;-25.924;28.194;2024-03-23T05:10:46;85506.00;;;20.59;51.56
55486;BME280;71262;-25.924;28.194;2024-03-23T05:13:11;85508.06;;;20.70;46.52
55486;BME280;71262;-25.924;28.194;2024-03-23T05:15:36;85509.05;;;20.44;48.07
55486;BME280;71262;-25.924;28.194;2024-03-23T05:18:01;85512.30;;;20.37;49.94
55486;BME280;71262;-25.924;28.194;2024-03-23T05:20:26;85516.02;;;20.76;50.92
55486;BME280;71262;-25.924;28.194;2024-03-23T05:22:51;85519.01;;;20.63;51.18
55486;BME280;71262;-25.924;28.194;2024-03-23T05:25:16;85517.21;;;20.52;51.62
55486;BME280;71262;-25.924;28.194;2024-03-23T05:27:42;85519.14;;;20.55;46.81
55486;BME280;71262;-25.924;28.194;2024-03-23T05:30:08;85519.52;;;20.44;48.18
55486;BME280;71262;-25.924;28.194;2024-03-23T05:32:32;85524.64;;;21.18;49.51
55486;BME280;71262;-25.924;28.194;2024-03-23T05:34:57;85523.45;;;20.58;50.93
55486;BME280;71262;-25.924;28.194;2024-03-23T05:37:23;85530.48;;;20.68;51.09
55486;BME280;71262;-25.924;28.194;2024-03-23T05:39:48;85532.59;;;20.66;51.16
55486;BME280;71262;-25.924;28.194;2024-03-23T05:42:13;85530.73;;;20.81;46.71
55486;BME280;71262;-25.924;28.194;2024-03-23T05:44:39;85534.98;;;20.70;48.38
55486;BME280;71262;-25.924;28.194;2024-03-23T05:47:03;85536.71;;;20.34;50.32
55486;BME280;71262;-25.924;28.194;2024-03-23T05:49:28;85540.18;;;20.80;51.12
55486;BME280;71262;-25.924;28.194;2024-03-23T05:51:54;85545.02;;;20.50;51.36
55486;BME280;71262;-25.924;28.194;2024-03-23T05:54:19;85547.17;;;20.41;47.74
55486;BME280;71262;-25.924;28.194;2024-03-23T05:56:44;85555.21;;;20.49;48.09
55486;BME280;71262;-25.924;28.194;2024-03-23T05:59:09;85545.79;;;20.11;50.20
55486;BME280;71262;-25.924;28.194;2024-03-23T06:01:34;85552.95;;;20.50;51.66
55486;BME280;71262;-25.924;28.194;2024-03-23T06:03:59;85555.11;;;20.38;51.73
55486;BME280;71262;-25.924;28.194;2024-03-23T06:06:25;85553.84;;;20.71;51.28
55486;BME280;71262;-25.924;28.194;2024-03-23T06:08:50;85552.28;;;20.69;46.86
55486;BME280;71262;-25.924;28.194;2024-03-23T06:11:15;85547.20;;;20.18;48.66
55486;BME280;71262;-25.924;28.194;2024-03-23T06:13:40;85554.56;;;20.19;50.36
55486;BME280;71262;-25.924;28.194;2024-03-23T06:16:05;85560.59;;;20.46;51.15
55486;BME280;71262;-25.924;28.194;2024-03-23T06:18:30;85555.03;;;20.22;51.28
55486;BME280;71262;-25.924;28.194;2024-03-23T06:20:55;85558.32;;;20.62;48.81
55486;BME280;71262;-25.924;28.194;2024-03-23T06:23:20;85558.09;;;20.32;47.19
55486;BME280;71262;-25.924;28.194;2024-03-23T06:25:45;85563.84;;;20.71;49.77
55486;BME280;71262;-25.924;28.194;2024-03-23T06:28:11;85564.22;;;20.06;51.34
55486;BME280;71262;-25.924;28.194;2024-03-23T06:30:35;85567.68;;;20.16;51.40
55486;BME280;71262;-25.924;28.194;2024-03-23T06:33:01;85567.73;;;20.26;51.38
55486;BME280;71262;-25.924;28.194;2024-03-23T06:35:26;85566.99;;;20.31;47.11
55486;BME280;71262;-25.924;28.194;2024-03-23T06:37:51;85570.45;;;20.20;48.88
55486;BME280;71262;-25.924;28.194;2024-03-23T06:40:16;85568.74;;;20.54;50.84
55486;BME280;71262;-25.924;28.194;2024-03-23T06:42:41;85570.98;;;20.07;51.64
55486;BME280;71262;-25.924;28.194;2024-03-23T06:45:07;85572.35;;;20.18;51.54
55486;BME280;71262;-25.924;28.194;2024-03-23T06:47:31;85575.21;;;20.48;48.42
55486;BME280;71262;-25.924;28.194;2024-03-23T06:49:56;85575.24;;;20.64;46.95
55486;BME280;71262;-25.924;28.194;2024-03-23T06:52:21;85578.84;;;20.32;49.74
55486;BME280;71262;-25.924;28.194;2024-03-23T06:54:46;85581.65;;;20.01;51.25
55486;BME280;71262;-25.924;28.194;2024-03-23T06:57:11;85583.13;;;20.38;51.76
55486;BME280;71262;-25.924;28.194;2024-03-23T06:59:36;85587.16;;;20.60;51.77
55486;BME280;71262;-25.924;28.194;2024-03-23T07:02:01;85585.24;;;20.62;48.36
55486;BME280;71262;-25.924;28.194;2024-03-23T07:04:26;85591.87;;;20.32;48.84
55486;BME280;71262;-25.924;28.194;2024-03-23T07:06:51;85590.43;;;20.21;50.81
55486;BME280;71262;-25.924;28.194;2024-03-23T07:09:16;85588.74;;;20.23;52.29
55486;BME280;71262;-25.924;28.194;2024-03-23T07:11:41;85588.81;;;20.21;52.56
55486;BME280;71262;-25.924;28.194;2024-03-23T07:14:06;85589.31;;;20.10;50.68
55486;BME280;71262;-25.924;28.194;2024-03-23T07:16:32;85589.25;;;20.14;48.47
55486;BME280;71262;-25.924;28.194;2024-03-23T07:18:57;85592.58;;;20.06;51.48
55486;BME280;71262;-25.924;28.194;2024-03-23T07:21:23;85594.92;;;20.47;53.30
55486;BME280;71262;-25.924;28.194;2024-03-23T07:23:48;85596.43;;;20.17;54.46
55486;BME280;71262;-25.924;28.194;2024-03-23T07:26:13;85597.84;;;20.43;54.65
55486;BME280;71262;-25.924;28.194;2024-03-23T07:28:39;85597.17;;;20.46;49.44
55486;BME280;71262;-25.924;28.194;2024-03-23T07:31:04;85594.48;;;20.25;49.84
55486;BME280;71262;-25.924;28.194;2024-03-23T07:33:29;85594.05;;;20.28;52.67
55486;BME280;71262;-25.924;28.194;2024-03-23T07:35:53;85590.16;;;20.27;53.72
55486;BME280;71262;-25.924;28.194;2024-03-23T07:38:19;85587.39;;;20.46;54.59
55486;BME280;71262;-25.924;28.194;2024-03-23T07:40:45;85587.07;;;19.97;54.90
55486;BME280;71262;-25.924;28.194;2024-03-23T07:43:10;85586.35;;;20.37;50.79
55486;BME280;71262;-25.924;28.194;2024-03-23T07:45:35;85578.88;;;20.30;48.34
55486;BME280;71262;-25.924;28.194;2024-03-23T07:48:00;85580.03;;;20.24;51.39
55486;BME280;71262;-25.924;28.194;2024-03-23T07:50:25;85577.38;;;20.54;52.99
55486;BME280;71262;-25.924;28.194;2024-03-23T07:52:50;85575.45;;;20.12;53.95
55486;BME280;71262;-25.924;28.194;2024-03-23T07:55:15;85579.44;;;20.57;54.20
55486;BME280;71262;-25.924;28.194;2024-03-23T07:57:40;85577.89;;;20.49;49.71
55486;BME280;71262;-25.924;28.194;2024-03-23T08:00:06;85580.71;;;20.12;48.68
55486;BME280;71262;-25.924;28.194;2024-03-23T08:02:30;85576.78;;;20.34;48.33
55486;BME280;71262;-25.924;28.194;2024-03-23T08:04:56;85565.93;;;20.64;47.92
55486;BME280;71262;-25.924;28.194;2024-03-23T08:07:21;85569.10;;;20.19;47.95
55486;BME280;71262;-25.924;28.194;2024-03-23T08:09:46;85568.43;;;20.44;49.14
55486;BME280;71262;-25.924;28.194;2024-03-23T08:12:11;85563.42;;;20.05;51.21
55486;BME280;71262;-25.924;28.194;2024-03-23T08:14:36;85563.85;;;20.45;52.40
55486;BME280;71262;-25.924;28.194;2024-03-23T08:17:01;85561.40;;;20.68;53.58
55486;BME280;71262;-25.924;28.194;2024-03-23T08:19:26;85564.53;;;20.36;54.42
55486;BME280;71262;-25.924;28.194;2024-03-23T08:21:52;85562.38;;;20.62;50.48
55486;BME280;71262;-25.924;28.194;2024-03-23T08:24:17;85560.69;;;20.87;47.96
55486;BME280;71262;-25.924;28.194;2024-03-23T08:26:42;85559.05;;;20.29;50.85
55486;BME280;71262;-25.924;28.194;2024-03-23T08:29:07;85551.41;;;20.71;52.25
55486;BME280;71262;-25.924;28.194;2024-03-23T08:31:32;85549.73;;;20.25;53.29
55486;BME280;71262;-25.924;28.194;2024-03-23T08:33:57;85550.46;;;20.87;53.30
55486;BME280;71262;-25.924;28.194;2024-03-23T08:36:22;85546.45;;;20.45;49.07
55486;BME280;71262;-25.924;28.194;2024-03-23T08:38:47;85541.03;;;20.47;49.19
55486;BME280;71262;-25.924;28.194;2024-03-23T08:41:12;85542.87;;;20.34;52.22
55486;BME280;71262;-25.924;28.194;2024-03-23T08:43:39;85534.84;;;19.98;55.05
55486;BME280;71262;-25.924;28.194;2024-03-23T08:46:06;85531.95;;;19.81;51.74
55486;BME280;71262;-25.924;28.194;2024-03-23T08:48:27;85534.95;;;19.91;51.63
55486;BME280;71262;-25.924;28.194;2024-03-23T08:51:01;85533.43;;;19.55;52.64
55486;BME280;71262;-25.924;28.194;2024-03-23T08:53:17;85532.68;;;19.66;53.31
55486;BME280;71262;-25.924;28.194;2024-03-23T08:55:42;85529.79;;;19.69;53.88
55486;BME280;71262;-25.924;28.194;2024-03-23T08:58:07;85532.04;;;19.56;54.63
55486;BME280;71262;-25.924;28.194;2024-03-23T09:00:32;85531.14;;;19.40;55.51
55486;BME280;71262;-25.924;28.194;2024-03-23T09:02:57;85529.31;;;19.21;55.62
55486;BME280;71262;-25.924;28.194;2024-03-23T09:05:22;85528.57;;;19.39;56.44
55486;BME280;71262;-25.924;28.194;2024-03-23T09:07:48;85529.72;;;19.38;56.64
55486;BME280;71262;-25.924;28.194;2024-03-23T09:10:12;85525.90;;;19.28;57.61
55486;BME280;71262;-25.924;28.194;2024-03-23T09:12:41;85520.59;;;19.56;56.46
55486;BME280;71262;-25.924;28.194;2024-03-23T09:15:04;85519.91;;;19.66;56.10
55486;BME280;71262;-25.924;28.194;2024-03-23T09:17:29;85517.78;;;19.67;54.86
55486;BME280;71262;-25.924;28.194;2024-03-23T09:19:55;85518.15;;;19.82;53.82
55486;BME280;71262;-25.924;28.194;2024-03-23T09:22:20;85514.56;;;19.67;53.14
55486;BME280;71262;-25.924;28.194;2024-03-23T09:24:45;85513.82;;;19.62;52.81
55486;BME280;71262;-25.924;28.194;2024-03-23T09:27:10;85511.27;;;19.26;51.84
55486;BME280;71262;-25.924;28.194;2024-03-23T09:29:35;85502.64;;;19.19;51.34
55486;BME280;71262;-25.924;28.194;2024-03-23T09:32:01;85501.50;;;19.67;51.20
55486;BME280;71262;-25.924;28.194;2024-03-23T09:34:26;85498.15;;;19.14;50.99
55486;BME280;71262;-25.924;28.194;2024-03-23T09:36:52;85492.76;;;19.60;50.56
55486;BME280;71262;-25.924;28.194;2024-03-23T09:39:18;85487.14;;;19.04;50.46
55486;BME280;71262;-25.924;28.194;2024-03-23T09:41:44;85481.86;;;19.43;49.88
55486;BME280;71262;-25.924;28.194;2024-03-23T09:44:10;85477.78;;;19.50;49.47
55486;BME280;71262;-25.924;28.194;2024-03-23T09:46:36;85479.82;;;19.56;49.22
55486;BME280;71262;-25.924;28.194;2024-03-23T09:49:02;85473.71;;;19.62;48.96
55486;BME280;71262;-25.924;28.194;2024-03-23T09:51:26;85469.83;;;19.25;48.98
55486;BME280;71262;-25.924;28.194;2024-03-23T09:53:52;85467.25;;;19.50;48.65
55486;BME280;71262;-25.924;28.194;2024-03-23T09:56:16;85469.11;;;19.47;48.48
55486;BME280;71262;-25.924;28.194;2024-03-23T09:58:41;85467.11;;;19.21;48.55
55486;BME280;71262;-25.924;28.194;2024-03-23T10:01:07;85461.86;;;19.43;48.35
55486;BME280;71262;-25.924;28.194;2024-03-23T10:03:32;85451.08;;;19.46;48.53
55486;BME280;71262;-25.924;28.194;2024-03-23T10:06:01;85445.65;;;19.68;48.32
55486;BME280;71262;-25.924;28.194;2024-03-23T10:08:22;85452.42;;;19.22;48.22
55486;BME280;71262;-25.924;28.194;2024-03-23T10:10:47;85444.62;;;19.67;48.12
55486;BME280;71262;-25.924;28.194;2024-03-23T10:13:12;85436.69;;;19.35;48.40
55486;BME280;71262;-25.924;28.194;2024-03-23T10:15:37;85431.92;;;19.49;47.79
55486;BME280;71262;-25.924;28.194;2024-03-23T10:18:16;85429.23;;;19.64;47.94
55486;BME280;71262;-25.924;28.194;2024-03-23T10:20:26;85428.27;;;19.71;47.72
55486;BME280;71262;-25.924;28.194;2024-03-23T10:22:52;85424.69;;;19.68;47.68
55486;BME280;71262;-25.924;28.194;2024-03-23T10:25:17;85420.12;;;19.41;47.78
55486;BME280;71262;-25.924;28.194;2024-03-23T10:27:42;85416.69;;;19.11;47.80
55486;BME280;71262;-25.924;28.194;2024-03-23T10:30:12;85414.50;;;19.54;47.92
55486;BME280;71262;-25.924;28.194;2024-03-23T10:32:32;85414.38;;;19.50;48.12
55486;BME280;71262;-25.924;28.194;2024-03-23T10:34:56;85408.10;;;19.61;47.96
55486;BME280;71262;-25.924;28.194;2024-03-23T10:37:22;85401.82;;;19.57;48.17
55486;BME280;71262;-25.924;28.194;2024-03-23T10:39:46;85395.91;;;19.05;48.05
55486;BME280;71262;-25.924;28.194;2024-03-23T10:42:12;85390.40;;;19.67;47.85
55486;BME280;71262;-25.924;28.194;2024-03-23T10:44:37;85385.58;;;19.47;48.04
55486;BME280;71262;-25.924;28.194;2024-03-23T10:47:02;85387.35;;;19.47;47.75
55486;BME280;71262;-25.924;28.194;2024-03-23T10:49:29;85386.93;;;19.28;47.39
55486;BME280;71262;-25.924;28.194;2024-03-23T10:51:52;85381.33;;;19.43;47.39
55486;BME280;71262;-25.924;28.194;2024-03-23T10:54:19;85376.33;;;19.43;47.28
55486;BME280;71262;-25.924;28.194;2024-03-23T10:56:44;85370.42;;;19.54;46.99
55486;BME280;71262;-25.924;28.194;2024-03-23T10:59:09;85364.82;;;19.26;47.00
55486;BME280;71262;-25.924;28.194;2024-03-23T11:01:35;85362.82;;;19.53;46.83
55486;BME280;71262;-25.924;28.194;2024-03-23T11:04:00;85363.17;;;19.46;46.87
55486;BME280;71262;-25.924;28.194;2024-03-23T11:08:51;85359.72;;;19.19;46.51
55486;BME280;71262;-25.924;28.194;2024-03-23T11:11:18;85351.51;;;19.76;46.38
55486;BME280;71262;-25.924;28.194;2024-03-23T11:13:41;85352.31;;;19.68;46.90
55486;BME280;71262;-25.924;28.194;2024-03-23T11:18:32;85348.15;;;19.66;47.76
55486;BME280;71262;-25.924;28.194;2024-03-23T11:20:58;85344.87;;;19.69;47.45
55486;BME280;71262;-25.924;28.194;2024-03-23T11:23:28;85335.83;;;19.69;47.18
55486;BME280;71262;-25.924;28.194;2024-03-23T11:25:49;85331.09;;;19.48;46.97
55486;BME280;71262;-25.924;28.194;2024-03-23T11:28:14;85328.08;;;19.59;46.83
55486;BME280;71262;-25.924;28.194;2024-03-23T11:30:39;85329.42;;;19.61;46.73
55486;BME280;71262;-25.924;28.194;2024-03-23T11:33:05;85328.34;;;19.55;46.58
55486;BME280;71262;-25.924;28.194;2024-03-23T11:35:30;85321.49;;;19.50;46.61
55486;BME280;71262;-25.924;28.194;2024-03-23T11:40:20;85314.07;;;19.51;46.39
55486;BME280;71262;-25.924;28.194;2024-03-23T11:42:45;85311.88;;;19.56;46.27
55486;BME280;71262;-25.924;28.194;2024-03-23T11:45:11;85309.73;;;19.64;46.41
55486;BME280;71262;-25.924;28.194;2024-03-23T11:47:34;85309.71;;;19.51;46.38
55486;BME280;71262;-25.924;28.194;2024-03-23T11:50:01;85305.95;;;19.47;47.95
55486;BME280;71262;-25.924;28.194;2024-03-23T11:52:25;85304.83;;;19.63;49.92
55486;BME280;71262;-25.924;28.194;2024-03-23T11:54:50;85303.65;;;19.58;51.28
55486;BME280;71262;-25.924;28.194;2024-03-23T11:57:15;85305.48;;;19.42;52.71
55486;BME280;71262;-25.924;28.194;2024-03-23T11:59:41;85300.31;;;19.62;53.88
55486;BME280;71262;-25.924;28.194;2024-03-23T12:02:08;85297.95;;;19.65;54.02
55486;BME280;71262;-25.924;28.194;2024-03-23T12:04:33;85294.87;;;19.59;50.12
55486;BME280;71262;-25.924;28.194;2024-03-23T12:09:23;85291.76;;;19.37;48.89
55486;BME280;71262;-25.924;28.194;2024-03-23T12:11:48;85290.87;;;19.36;48.65
55486;BME280;71262;-25.924;28.194;2024-03-23T12:14:15;85292.24;;;19.49;48.09
55486;BME280;71262;-25.924;28.194;2024-03-23T12:16:38;85290.53;;;19.38;48.03
55486;BME280;71262;-25.924;28.194;2024-03-23T12:19:06;85286.18;;;19.15;47.79
55486;BME280;71262;-25.924;28.194;2024-03-23T12:21:28;85281.09;;;19.68;47.57
55486;BME280;71262;-25.924;28.194;2024-03-23T12:23:53;85274.56;;;19.58;47.52
55486;BME280;71262;-25.924;28.194;2024-03-23T12:26:18;85270.84;;;19.59;47.35
55486;BME280;71262;-25.924;28.194;2024-03-23T12:28:43;85268.64;;;19.61;48.41
55486;BME280;71262;-25.924;28.194;2024-03-23T12:31:09;85263.62;;;19.60;50.23
55486;BME280;71262;-25.924;28.194;2024-03-23T12:33:35;85261.15;;;19.41;51.66
55486;BME280;71262;-25.924;28.194;2024-03-23T12:36:00;85256.50;;;19.67;52.76
55486;BME280;71262;-25.924;28.194;2024-03-23T12:38:26;85253.30;;;19.65;53.83
55486;BME280;71262;-25.924;28.194;2024-03-23T12:40:52;85247.74;;;19.84;54.03
55486;BME280;71262;-25.924;28.194;2024-03-23T12:43:18;85244.93;;;19.82;53.13
55486;BME280;71262;-25.924;28.194;2024-03-23T12:45:47;85241.20;;;19.83;49.74
55486;BME280;71262;-25.924;28.194;2024-03-23T12:48:10;85235.64;;;19.60;49.65
55486;BME280;71262;-25.924;28.194;2024-03-23T12:50:36;85230.17;;;19.35;49.48
55486;BME280;71262;-25.924;28.194;2024-03-23T12:53:01;85230.58;;;19.44;49.07
55486;BME280;71262;-25.924;28.194;2024-03-23T12:55:26;85228.23;;;19.35;48.92
55486;BME280;71262;-25.924;28.194;2024-03-23T12:57:51;85230.10;;;19.52;50.42
55486;BME280;71262;-25.924;28.194;2024-03-23T13:00:16;85226.61;;;19.49;52.40
55486;BME280;71262;-25.924;28.194;2024-03-23T13:02:41;85224.89;;;19.44;53.62
55486;BME280;71262;-25.924;28.194;2024-03-23T13:05:07;85219.84;;;19.39;54.21
55486;BME280;71262;-25.924;28.194;2024-03-23T13:07:32;85214.39;;;19.70;54.63
55486;BME280;71262;-25.924;28.194;2024-03-23T13:09:58;85205.23;;;19.82;51.30
55486;BME280;71262;-25.924;28.194;2024-03-23T13:12:25;85204.67;;;19.53;49.42
55486;BME280;71262;-25.924;28.194;2024-03-23T13:14:49;85205.62;;;19.37;49.86
55486;BME280;71262;-25.924;28.194;2024-03-23T13:17:14;85204.83;;;19.56;49.85
55486;BME280;71262;-25.924;28.194;2024-03-23T13:19:40;85202.15;;;19.56;49.57
55486;BME280;71262;-25.924;28.194;2024-03-23T13:22:04;85200.06;;;19.47;49.59
55486;BME280;71262;-25.924;28.194;2024-03-23T13:24:29;85195.43;;;19.31;49.34
55486;BME280;71262;-25.924;28.194;2024-03-23T13:26:55;85194.29;;;19.56;49.06
55486;BME280;71262;-25.924;28.194;2024-03-23T13:29:20;85191.99;;;19.64;48.81
55486;BME280;71262;-25.924;28.194;2024-03-23T13:31:44;85189.00;;;19.54;48.91